createdAt,value
2023-01-29T00:00:14.397Z,13.24
2023-01-29T00:02:42.913Z,13.24
2023-01-29T00:05:26.384Z,13.24
2023-01-29T00:07:55.350Z,13.24
2023-01-29T00:10:24.525Z,13.25
2023-01-29T00:12:52.874Z,13.25
2023-01-29T00:15:21.700Z,13.24
2023-01-29T00:17:49.999Z,13.25
2023-01-29T00:20:19.122Z,13.28
2023-01-29T00:22:47.679Z,13.30
2023-01-29T00:25:16.078Z,13.34
2023-01-29T00:27:45.684Z,13.36
2023-01-29T00:30:14.782Z,13.38
2023-01-29T00:32:43.697Z,13.39
2023-01-29T00:35:12.837Z,13.40
2023-01-29T00:37:41.234Z,13.45
2023-01-29T00:40:10.642Z,13.48
2023-01-29T00:42:57.152Z,13.54
2023-01-29T00:45:25.521Z,13.58
2023-01-29T00:47:53.786Z,13.65
2023-01-29T00:50:22.301Z,13.68
2023-01-29T00:52:52.629Z,13.72
2023-01-29T00:55:21.013Z,13.77
2023-01-29T00:57:49.507Z,13.82
2023-01-29T01:00:19.991Z,13.88
2023-01-29T01:03:06.545Z,13.94
2023-01-29T01:05:35.305Z,14.01
2023-01-29T01:08:03.640Z,14.08
2023-01-29T01:10:34.506Z,14.13
2023-01-29T01:13:06.156Z,14.20
2023-01-29T01:15:40.072Z,14.26
2023-01-29T01:18:08.830Z,14.31
2023-01-29T01:20:37.935Z,14.35
2023-01-29T01:23:06.720Z,14.41
2023-01-29T01:25:35.395Z,14.44
2023-01-29T01:28:03.716Z,14.49
2023-01-29T01:30:32.100Z,14.56
2023-01-29T01:33:00.374Z,14.63
2023-01-29T01:35:28.670Z,14.70
2023-01-29T01:37:57.082Z,14.77
2023-01-29T01:40:27.003Z,14.84
2023-01-29T01:42:58.533Z,14.92
2023-01-29T01:45:32.120Z,14.98
2023-01-29T01:48:00.429Z,15.05
2023-01-29T01:50:36.993Z,15.13
2023-01-29T01:53:14.711Z,15.21
2023-01-29T01:55:57.412Z,15.28
2023-01-29T01:58:37.935Z,15.35
2023-01-29T02:01:09.392Z,15.42
2023-01-29T02:04:03.304Z,15.50
2023-01-29T02:06:51.377Z,15.61
2023-01-29T02:09:36.745Z,15.69
2023-01-29T02:12:07.962Z,15.81
2023-01-29T02:14:41.744Z,15.91
2023-01-29T02:17:25.885Z,15.97
2023-01-29T02:20:06.934Z,16.09
2023-01-29T02:22:48.421Z,16.19
2023-01-29T02:25:34.667Z,16.31
2023-01-29T02:28:05.658Z,16.44
2023-01-29T02:30:45.831Z,16.54
2023-01-29T02:33:33.192Z,16.64
2023-01-29T02:36:26.294Z,16.73
2023-01-29T02:39:10.839Z,16.81
2023-01-29T02:41:52.131Z,16.90
2023-01-29T02:44:38.251Z,16.99
2023-01-29T02:47:32.460Z,17.10
2023-01-29T02:50:25.051Z,17.19
2023-01-29T02:53:27.241Z,17.28
2023-01-29T02:56:22.868Z,17.41
2023-01-29T02:59:03.136Z,17.48
2023-01-29T03:01:49.798Z,17.56
2023-01-29T03:04:24.024Z,17.65
2023-01-29T03:06:59.812Z,17.74
2023-01-29T03:09:47.928Z,17.84
2023-01-29T03:12:34.739Z,17.92
2023-01-29T03:15:26.002Z,18.04
2023-01-29T03:18:10.112Z,18.15
2023-01-29T03:20:52.507Z,18.26
2023-01-29T03:23:48.774Z,18.35
2023-01-29T03:26:39.337Z,18.45
2023-01-29T03:29:28.516Z,18.54
2023-01-29T03:32:07.760Z,18.63
2023-01-29T03:34:52.690Z,18.72
2023-01-29T03:37:28.434Z,18.81
2023-01-29T03:39:57.246Z,18.90
2023-01-29T03:42:30.795Z,18.97
2023-01-29T03:45:10.348Z,19.05
2023-01-29T03:47:52.096Z,19.12
2023-01-29T03:50:41.628Z,19.20
2023-01-29T03:53:23.165Z,19.31
2023-01-29T03:56:03.224Z,19.42
2023-01-29T03:58:34.499Z,19.52
2023-01-29T04:01:11.132Z,19.61
2023-01-29T04:03:53.794Z,19.69
2023-01-29T04:06:25.700Z,19.79
2023-01-29T04:09:23.122Z,19.87
2023-01-29T04:12:01.135Z,19.97
2023-01-29T04:14:30.906Z,20.04
2023-01-29T04:17:03.375Z,20.12
2023-01-29T04:19:32.140Z,20.19
2023-01-29T04:22:25.600Z,20.26
2023-01-29T04:24:54.442Z,20.31
2023-01-29T04:27:41.941Z,20.39
2023-01-29T04:30:36.802Z,20.48
2023-01-29T04:33:11.254Z,20.53
2023-01-29T04:36:15.806Z,20.56
2023-01-29T04:39:00.620Z,20.63
2023-01-29T04:41:38.666Z,20.68
2023-01-29T04:44:34.641Z,20.75
2023-01-29T04:47:27.969Z,20.80
2023-01-29T04:50:28.254Z,20.86
2023-01-29T04:53:26.548Z,20.96
2023-01-29T04:56:06.168Z,21.06
2023-01-29T04:58:43.141Z,21.12
2023-01-29T05:01:15.322Z,21.20
2023-01-29T05:03:48.639Z,21.27
2023-01-29T05:06:19.185Z,21.34
2023-01-29T05:08:50.318Z,21.42
2023-01-29T05:11:21.155Z,21.45
2023-01-29T05:13:50.664Z,21.50
2023-01-29T05:16:23.387Z,21.55
2023-01-29T05:18:51.836Z,21.59
2023-01-29T05:21:21.039Z,21.68
2023-01-29T05:24:06.938Z,21.73
2023-01-29T05:26:54.020Z,21.78
2023-01-29T05:29:23.384Z,21.84
2023-01-29T05:31:51.692Z,21.91
2023-01-29T05:34:20.103Z,21.99
2023-01-29T05:36:48.523Z,22.04
2023-01-29T05:39:17.211Z,22.10
2023-01-29T05:41:45.623Z,22.13
2023-01-29T05:44:14.006Z,22.17
2023-01-29T05:46:42.909Z,22.20
2023-01-29T05:49:11.176Z,22.25
2023-01-29T05:51:39.966Z,22.32
2023-01-29T05:54:08.280Z,22.36
2023-01-29T05:56:36.575Z,22.41
2023-01-29T05:59:04.943Z,22.44
2023-01-29T06:01:33.413Z,22.48
2023-01-29T06:04:01.797Z,22.51
2023-01-29T06:06:30.100Z,22.51
2023-01-29T06:08:58.429Z,22.55
2023-01-29T06:11:27.061Z,22.57
2023-01-29T06:13:55.382Z,22.62
2023-01-29T06:16:23.712Z,22.67
2023-01-29T06:18:52.032Z,22.69
2023-01-29T06:21:20.336Z,22.71
2023-01-29T06:23:48.972Z,22.73
2023-01-29T06:26:17.721Z,22.74
2023-01-29T06:28:46.901Z,22.76
2023-01-29T06:31:35.254Z,22.76
2023-01-29T06:34:03.563Z,22.80
2023-01-29T06:36:32.106Z,22.81
2023-01-29T06:39:00.518Z,22.85
2023-01-29T06:41:29.553Z,22.89
2023-01-29T06:43:57.864Z,22.90
2023-01-29T06:46:26.230Z,22.92
2023-01-29T06:48:54.566Z,22.93
2023-01-29T06:51:23.920Z,22.95
2023-01-29T06:53:52.273Z,22.96
2023-01-29T06:56:20.567Z,23.00
2023-01-29T06:58:48.921Z,23.05
2023-01-29T07:01:33.375Z,23.09
2023-01-29T07:04:03.899Z,23.09
2023-01-29T07:06:33.021Z,23.10
2023-01-29T07:09:01.734Z,23.10
2023-01-29T07:11:30.070Z,23.11
2023-01-29T07:13:58.681Z,23.11
2023-01-29T07:16:27.419Z,23.11
2023-01-29T07:18:55.850Z,23.14
2023-01-29T07:21:24.340Z,23.14
2023-01-29T07:23:52.692Z,23.15
2023-01-29T07:26:21.095Z,23.17
2023-01-29T07:28:49.414Z,23.18
2023-01-29T07:31:17.981Z,23.19
2023-01-29T07:33:46.656Z,23.19
2023-01-29T07:36:17.472Z,23.19
2023-01-29T07:38:49.839Z,23.18
2023-01-29T07:41:18.150Z,23.17
2023-01-29T07:43:46.456Z,23.19
2023-01-29T07:46:15.026Z,23.21
2023-01-29T07:48:43.359Z,23.23
2023-01-29T07:51:11.690Z,23.28
2023-01-29T07:53:40.201Z,23.30
2023-01-29T07:56:09.106Z,23.28
2023-01-29T07:58:37.496Z,23.28
2023-01-29T08:01:09.444Z,23.28
2023-01-29T08:03:38.243Z,23.32
2023-01-29T08:06:07.100Z,23.30
2023-01-29T08:08:35.445Z,23.32
2023-01-29T08:11:06.481Z,23.33
2023-01-29T08:13:35.049Z,23.36
2023-01-29T08:16:05.365Z,23.38
2023-01-29T08:18:33.671Z,23.38
2023-01-29T08:21:03.150Z,23.37
2023-01-29T08:23:31.918Z,23.37
2023-01-29T08:26:00.321Z,23.37
2023-01-29T08:28:28.737Z,23.37
2023-01-29T08:30:57.299Z,23.37
2023-01-29T08:33:40.607Z,23.37
2023-01-29T08:36:10.202Z,23.37
2023-01-29T08:38:38.589Z,23.33
2023-01-29T08:41:07.272Z,23.32
2023-01-29T08:43:38.008Z,23.30
2023-01-29T08:46:07.930Z,23.28
2023-01-29T08:48:36.461Z,23.29
2023-01-29T08:51:05.531Z,23.28
2023-01-29T08:53:34.172Z,23.27
2023-01-29T08:56:02.850Z,23.26
2023-01-29T08:58:31.165Z,23.25
2023-01-29T09:01:11.170Z,23.23
2023-01-29T09:03:41.990Z,23.21
2023-01-29T09:06:11.952Z,23.18
2023-01-29T09:08:40.864Z,23.15
2023-01-29T09:11:09.825Z,23.13
2023-01-29T09:13:38.742Z,23.10
2023-01-29T09:16:07.404Z,23.09
2023-01-29T09:18:35.681Z,23.06
2023-01-29T09:21:04.144Z,23.03
2023-01-29T09:23:32.591Z,22.97
2023-01-29T09:26:01.379Z,22.97
2023-01-29T09:28:29.777Z,22.94
2023-01-29T09:30:58.256Z,22.90
2023-01-29T09:33:27.119Z,22.86
2023-01-29T09:35:55.400Z,22.84
2023-01-29T09:38:23.762Z,22.80
2023-01-29T09:41:16.104Z,22.76
2023-01-29T09:43:58.259Z,22.71
2023-01-29T09:46:37.220Z,22.67
2023-01-29T09:49:32.590Z,22.63
2023-01-29T09:52:04.994Z,22.60
2023-01-29T09:54:54.436Z,22.56
2023-01-29T09:57:34.525Z,22.51
2023-01-29T10:00:02.947Z,22.49
2023-01-29T10:02:55.647Z,22.45
2023-01-29T10:05:33.568Z,22.41
2023-01-29T10:08:13.637Z,22.36
2023-01-29T10:10:58.990Z,22.32
2023-01-29T10:13:41.196Z,22.28
2023-01-29T10:16:31.945Z,22.23
2023-01-29T10:19:07.023Z,22.21
2023-01-29T10:22:11.085Z,22.17
2023-01-29T10:24:52.247Z,22.11
2023-01-29T10:27:21.079Z,22.05
2023-01-29T10:29:54.858Z,22.01
2023-01-29T10:32:27.392Z,21.96
2023-01-29T10:35:15.775Z,21.87
2023-01-29T10:37:45.310Z,21.82
2023-01-29T10:40:39.568Z,21.77
2023-01-29T10:43:36.687Z,21.71
2023-01-29T10:46:27.923Z,21.65
2023-01-29T10:48:59.401Z,21.59
2023-01-29T10:51:35.842Z,21.55
2023-01-29T10:54:16.038Z,21.50
2023-01-29T10:56:44.288Z,21.45
2023-01-29T10:59:35.366Z,21.39
2023-01-29T11:02:04.376Z,21.34
2023-01-29T11:04:33.826Z,21.29
2023-01-29T11:07:02.330Z,21.23
2023-01-29T11:09:56.353Z,21.18
2023-01-29T11:12:31.349Z,21.12
2023-01-29T11:15:20.908Z,21.05
2023-01-29T11:18:12.524Z,20.97
2023-01-29T11:20:42.726Z,20.91
2023-01-29T11:23:33.044Z,20.85
2023-01-29T11:26:02.195Z,20.78
2023-01-29T11:28:56.737Z,20.70
2023-01-29T11:31:29.177Z,20.63
2023-01-29T11:34:14.365Z,20.54
2023-01-29T11:36:42.684Z,20.49
2023-01-29T11:39:24.583Z,20.42
2023-01-29T11:42:14.115Z,20.37
2023-01-29T11:44:44.409Z,20.30
2023-01-29T11:47:20.610Z,20.25
2023-01-29T11:49:55.240Z,20.20
2023-01-29T11:52:27.239Z,20.12
2023-01-29T11:55:20.675Z,20.03
2023-01-29T11:58:05.641Z,19.96
2023-01-29T12:00:37.573Z,19.89
2023-01-29T12:03:25.124Z,19.84
2023-01-29T12:06:04.530Z,19.76
2023-01-29T12:08:38.899Z,19.69
2023-01-29T12:11:13.999Z,19.63
2023-01-29T12:13:47.401Z,19.55
2023-01-29T12:16:55.715Z,19.47
2023-01-29T12:19:30.113Z,19.37
2023-01-29T12:22:24.029Z,19.27
2023-01-29T12:25:21.531Z,19.20
2023-01-29T12:28:09.649Z,19.12
2023-01-29T12:30:56.027Z,19.09
2023-01-29T12:33:45.349Z,19.03
2023-01-29T12:36:37.219Z,18.97
2023-01-29T12:39:05.947Z,18.89
2023-01-29T12:41:39.130Z,18.82
2023-01-29T12:44:20.260Z,18.74
2023-01-29T12:46:54.986Z,18.65
2023-01-29T12:49:44.738Z,18.54
2023-01-29T12:52:47.885Z,18.44
2023-01-29T12:55:36.218Z,18.33
2023-01-29T12:58:11.424Z,18.27
2023-01-29T13:00:47.649Z,18.19
2023-01-29T13:03:24.240Z,18.13
2023-01-29T13:06:00.634Z,18.08
2023-01-29T13:08:39.459Z,18.02
2023-01-29T13:11:31.144Z,17.96
2023-01-29T13:14:29.809Z,17.92
2023-01-29T13:17:28.911Z,17.85
2023-01-29T13:20:01.963Z,17.83
2023-01-29T13:22:42.075Z,17.79
2023-01-29T13:25:18.300Z,17.75
2023-01-29T13:27:48.767Z,17.73
2023-01-29T13:30:26.281Z,17.72
2023-01-29T13:32:56.470Z,17.69
2023-01-29T13:35:25.317Z,17.66
2023-01-29T13:37:56.866Z,17.61
2023-01-29T13:40:29.201Z,17.57
2023-01-29T13:43:00.377Z,17.53
2023-01-29T13:45:32.879Z,17.49
2023-01-29T13:48:28.632Z,17.41
2023-01-29T13:51:01.433Z,17.37
2023-01-29T13:53:39.655Z,17.32
2023-01-29T13:56:30.935Z,17.28
2023-01-29T13:58:59.518Z,17.23
2023-01-29T14:02:04.923Z,17.18
2023-01-29T14:04:34.980Z,17.13
2023-01-29T14:07:23.690Z,17.09
2023-01-29T14:09:52.013Z,17.06
2023-01-29T14:12:23.378Z,17.03
2023-01-29T14:14:57.780Z,17.01
2023-01-29T14:17:28.192Z,16.99
2023-01-29T14:20:05.938Z,16.98
2023-01-29T14:22:34.906Z,16.96
2023-01-29T14:25:07.853Z,16.94
2023-01-29T14:27:38.370Z,16.92
2023-01-29T14:30:17.714Z,16.91
2023-01-29T14:32:50.928Z,16.87
2023-01-29T14:35:26.668Z,16.85
2023-01-29T14:38:07.235Z,16.80
2023-01-29T14:40:37.990Z,16.78
2023-01-29T14:43:21.885Z,16.73
2023-01-29T14:45:50.659Z,16.69
2023-01-29T14:48:37.953Z,16.65
2023-01-29T14:51:18.976Z,16.59
2023-01-29T14:54:14.572Z,16.55
2023-01-29T14:57:09.691Z,16.52
2023-01-29T15:00:06.288Z,16.50
2023-01-29T15:02:42.708Z,16.47
2023-01-29T15:05:37.749Z,16.45
2023-01-29T15:08:33.220Z,16.44
2023-01-29T15:11:27.595Z,16.43
2023-01-29T15:14:08.432Z,16.43
2023-01-29T15:17:01.827Z,16.43
2023-01-29T15:19:41.177Z,16.39
2023-01-29T15:22:10.759Z,16.39
2023-01-29T15:24:40.912Z,16.38
2023-01-29T15:27:19.589Z,16.35
2023-01-29T15:30:00.392Z,16.34
2023-01-29T15:32:41.151Z,16.30
2023-01-29T15:35:19.959Z,16.29
2023-01-29T15:38:04.395Z,16.25
2023-01-29T15:40:33.464Z,16.22
2023-01-29T15:43:02.038Z,16.19
2023-01-29T15:45:35.090Z,16.19
2023-01-29T15:48:15.146Z,16.17
2023-01-29T15:50:44.757Z,16.15
2023-01-29T15:53:21.294Z,16.13
2023-01-29T15:55:52.513Z,16.13
2023-01-29T15:58:29.203Z,16.12
2023-01-29T16:01:00.656Z,16.11
2023-01-29T16:03:33.796Z,16.10
2023-01-29T16:06:03.455Z,16.10
2023-01-29T16:08:31.936Z,16.10
2023-01-29T16:11:04.708Z,16.08
2023-01-29T16:13:36.997Z,16.07
2023-01-29T16:16:18.027Z,16.07
2023-01-29T16:18:59.488Z,16.06
2023-01-29T16:21:28.907Z,16.07
2023-01-29T16:24:00.735Z,16.08
2023-01-29T16:26:36.303Z,16.10
2023-01-29T16:29:13.265Z,16.12
2023-01-29T16:31:43.769Z,16.14
2023-01-29T16:34:28.936Z,16.14
2023-01-29T16:36:58.759Z,16.13
2023-01-29T16:39:31.663Z,16.13
2023-01-29T16:42:13.240Z,16.11
2023-01-29T16:44:46.509Z,16.07
2023-01-29T16:47:21.934Z,16.06
2023-01-29T16:49:52.806Z,16.03
2023-01-29T16:52:21.273Z,16.00
2023-01-29T16:54:49.770Z,15.98
2023-01-29T16:57:26.022Z,15.96
2023-01-29T17:00:00.574Z,15.93
2023-01-29T17:02:39.700Z,15.90
2023-01-29T17:05:11.094Z,15.87
2023-01-29T17:07:39.769Z,15.83
2023-01-29T17:10:08.960Z,15.80
2023-01-29T17:12:38.877Z,15.75
2023-01-29T17:15:32.360Z,15.66
2023-01-29T17:18:01.257Z,15.62
2023-01-29T17:20:31.200Z,15.56
2023-01-29T17:22:59.838Z,15.52
2023-01-29T17:25:29.500Z,15.47
2023-01-29T17:28:00.866Z,15.42
2023-01-29T17:30:33.196Z,15.37
2023-01-29T17:33:03.805Z,15.32
2023-01-29T17:35:32.101Z,15.25
2023-01-29T17:38:00.385Z,15.19
2023-01-29T17:40:40.719Z,15.11
2023-01-29T17:43:12.549Z,15.09
2023-01-29T17:45:41.449Z,15.05
2023-01-29T17:48:30.712Z,15.02
2023-01-29T17:51:03.897Z,15.00
2023-01-29T17:53:45.379Z,14.97
2023-01-29T17:56:20.291Z,14.94
2023-01-29T17:58:48.716Z,14.90
2023-01-29T18:01:17.313Z,14.91
2023-01-29T18:03:45.765Z,14.89
2023-01-29T18:06:28.092Z,14.83
2023-01-29T18:08:57.369Z,14.84
2023-01-29T18:11:26.255Z,14.81
2023-01-29T18:13:54.909Z,14.78
2023-01-29T18:16:23.934Z,14.73
2023-01-29T18:18:53.214Z,14.70
2023-01-29T18:21:21.593Z,14.66
2023-01-29T18:23:49.883Z,14.62
2023-01-29T18:26:18.672Z,14.57
2023-01-29T18:28:47.062Z,14.54
2023-01-29T18:31:15.474Z,14.50
2023-01-29T18:33:43.792Z,14.45
2023-01-29T18:36:12.092Z,14.41
2023-01-29T18:38:41.085Z,14.36
2023-01-29T18:41:13.956Z,14.31
2023-01-29T18:43:43.927Z,14.28
2023-01-29T18:46:12.370Z,14.23
2023-01-29T18:48:42.601Z,14.21
2023-01-29T18:51:11.574Z,14.18
2023-01-29T18:53:39.984Z,14.16
2023-01-29T18:56:08.762Z,14.15
2023-01-29T18:58:37.906Z,14.14
2023-01-29T19:01:10.332Z,14.14
2023-01-29T19:03:40.099Z,14.13
2023-01-29T19:06:11.113Z,14.13
2023-01-29T19:08:40.657Z,14.12
2023-01-29T19:11:09.909Z,14.14
2023-01-29T19:13:39.071Z,14.14
2023-01-29T19:16:11.735Z,14.12
2023-01-29T19:18:40.230Z,14.11
2023-01-29T19:21:11.904Z,14.12
2023-01-29T19:23:41.433Z,14.10
2023-01-29T19:26:10.882Z,14.11
2023-01-29T19:28:39.212Z,14.10
2023-01-29T19:31:07.705Z,14.08
2023-01-29T19:33:36.118Z,14.09
2023-01-29T19:36:04.488Z,14.10
2023-01-29T19:38:34.600Z,14.11
2023-01-29T19:41:03.044Z,14.12
2023-01-29T19:43:32.731Z,14.13
2023-01-29T19:46:02.688Z,14.12
2023-01-29T19:48:31.050Z,14.12
2023-01-29T19:51:01.815Z,14.11
2023-01-29T19:53:30.587Z,14.06
2023-01-29T19:56:05.368Z,14.02
2023-01-29T19:58:34.735Z,13.97
2023-01-29T20:01:09.369Z,13.92
2023-01-29T20:03:38.961Z,13.86
2023-01-29T20:06:08.058Z,13.79
2023-01-29T20:08:36.833Z,13.74
2023-01-29T20:11:06.471Z,13.71
2023-01-29T20:13:35.357Z,13.67
2023-01-29T20:16:06.337Z,13.65
2023-01-29T20:18:34.833Z,13.62
2023-01-29T20:21:09.143Z,13.60
2023-01-29T20:23:38.822Z,13.60
2023-01-29T20:26:15.440Z,13.59
2023-01-29T20:28:44.321Z,13.60
2023-01-29T20:31:12.760Z,13.60
2023-01-29T20:33:41.559Z,13.60
2023-01-29T20:36:12.198Z,13.59
2023-01-29T20:38:40.803Z,13.59
2023-01-29T20:41:17.439Z,13.60
2023-01-29T20:43:46.533Z,13.60
2023-01-29T20:46:14.988Z,13.60
2023-01-29T20:48:43.778Z,13.59
2023-01-29T20:51:18.033Z,13.59
2023-01-29T20:53:48.832Z,13.61
2023-01-29T20:56:18.142Z,13.61
2023-01-29T20:58:49.051Z,13.60
2023-01-29T21:01:19.966Z,13.61
2023-01-29T21:03:49.242Z,13.61
2023-01-29T21:06:17.564Z,13.61
2023-01-29T21:08:45.930Z,13.58
2023-01-29T21:11:14.353Z,13.59
2023-01-29T21:13:43.546Z,13.59
2023-01-29T21:16:12.270Z,13.59
2023-01-29T21:18:41.025Z,13.59
2023-01-29T21:21:09.410Z,13.58
2023-01-29T21:23:37.731Z,13.56
2023-01-29T21:26:07.764Z,13.54
2023-01-29T21:28:36.474Z,13.53
2023-01-29T21:31:11.057Z,13.52
2023-01-29T21:33:39.870Z,13.50
2023-01-29T21:36:09.376Z,13.48
2023-01-29T21:38:38.089Z,13.46
2023-01-29T21:41:10.528Z,13.47
2023-01-29T21:43:39.117Z,13.45
2023-01-29T21:46:14.806Z,13.45
2023-01-29T21:48:43.246Z,13.41
2023-01-29T21:51:11.811Z,13.39
2023-01-29T21:53:40.109Z,13.36
2023-01-29T21:56:08.580Z,13.35
2023-01-29T21:58:36.928Z,13.35
2023-01-29T22:01:36.559Z,13.35
2023-01-29T22:03:53.571Z,13.33
2023-01-29T22:06:22.082Z,13.28
2023-01-29T22:08:51.316Z,13.24
2023-01-29T22:11:19.812Z,13.19
2023-01-29T22:13:48.099Z,13.15
2023-01-29T22:16:16.411Z,13.13
2023-01-29T22:18:44.710Z,13.09
2023-01-29T22:21:13.048Z,13.05
2023-01-29T22:23:41.454Z,13.02
2023-01-29T22:26:10.756Z,13.00
2023-01-29T22:28:39.122Z,12.97
2023-01-29T22:31:07.493Z,12.94
2023-01-29T22:33:36.248Z,12.92
2023-01-29T22:36:05.572Z,12.91
2023-01-29T22:38:33.886Z,12.89
2023-01-29T22:41:02.628Z,12.87
2023-01-29T22:43:31.184Z,12.84
2023-01-29T22:45:59.559Z,12.81
2023-01-29T22:48:29.518Z,12.80
2023-01-29T22:51:10.486Z,12.78
2023-01-29T22:53:44.984Z,12.73
2023-01-29T22:56:13.530Z,12.69
2023-01-29T22:58:42.137Z,12.65
2023-01-29T23:01:10.532Z,12.61
2023-01-29T23:03:38.844Z,12.58
2023-01-29T23:06:07.176Z,12.53
2023-01-29T23:08:35.602Z,12.49
2023-01-29T23:11:19.518Z,12.46
2023-01-29T23:13:55.844Z,12.42
2023-01-29T23:16:28.174Z,12.38
2023-01-29T23:18:57.732Z,12.35
2023-01-29T23:21:26.595Z,12.32
2023-01-29T23:23:57.887Z,12.33
2023-01-29T23:26:45.056Z,12.33
2023-01-29T23:29:13.846Z,12.36
2023-01-29T23:31:42.193Z,12.37
2023-01-29T23:34:10.553Z,12.37
2023-01-29T23:36:38.879Z,12.36
2023-01-29T23:39:07.451Z,12.33
2023-01-29T23:41:36.087Z,12.32
2023-01-29T23:44:04.651Z,12.31
2023-01-29T23:46:33.305Z,12.30
2023-01-29T23:49:01.864Z,12.27
2023-01-29T23:51:30.377Z,12.26
2023-01-29T23:53:58.712Z,12.24
2023-01-29T23:56:27.086Z,12.24
2023-01-29T23:58:59.167Z,12.24
